Terminal Aerodrome Forecast
Issued by NWS

Home | Current Version | Previous Version | Text Only | Print | Product List | Glossary On
Versions: 1 2 3 4 5 6 7 8 9 10 11 12 13
145
FTUS43 KGRR 100539
TAFBTL
TAF
KBTL 100539Z 1006/1106 30011KT P6SM -SHSN SCT015 BKN025
     FM101200 31013G21KT P6SM -SHSN BKN040=

USA.gov is the U.S. government's official web portal to all federal, state and local government web resources and services.